sensor_id;sensor_type;location;lat;lon;timestamp;temperature;humidity
76384;SHT30;65204;48.606;7.598;2023-02-25T00:00:29;10.48;62.62
76384;SHT30;65204;48.606;7.598;2023-02-25T00:01:05;10.45;62.68
76384;SHT30;65204;48.606;7.598;2023-02-25T00:01:35;10.47;62.86
76384;SHT30;65204;48.606;7.598;2023-02-25T00:02:06;10.48;62.66
76384;SHT30;65204;48.606;7.598;2023-02-25T00:02:36;10.48;62.83
76384;SHT30;65204;48.606;7.598;2023-02-25T00:03:07;10.47;62.87
76384;SHT30;65204;48.606;7.598;2023-02-25T00:03:38;10.44;62.91
76384;SHT30;65204;48.606;7.598;2023-02-25T00:04:08;10.47;62.88
76384;SHT30;65204;48.606;7.598;2023-02-25T00:04:39;10.44;62.71
76384;SHT30;65204;48.606;7.598;2023-02-25T00:05:11;10.45;62.89
76384;SHT30;65204;48.606;7.598;2023-02-25T00:05:41;10.42;62.58
76384;SHT30;65204;48.606;7.598;2023-02-25T00:06:13;10.42;62.46
76384;SHT30;65204;48.606;7.598;2023-02-25T00:06:43;10.41;62.69
76384;SHT30;65204;48.606;7.598;2023-02-25T00:07:15;10.42;62.80
76384;SHT30;65204;48.606;7.598;2023-02-25T00:07:45;10.41;62.83
76384;SHT30;65204;48.606;7.598;2023-02-25T00:08:16;10.45;62.68
76384;SHT30;65204;48.606;7.598;2023-02-25T00:08:47;10.44;62.62
76384;SHT30;65204;48.606;7.598;2023-02-25T00:09:17;10.42;62.75
76384;SHT30;65204;48.606;7.598;2023-02-25T00:09:47;10.40;62.74
76384;SHT30;65204;48.606;7.598;2023-02-25T00:10:18;10.40;62.80
76384;SHT30;65204;48.606;7.598;2023-02-25T00:10:59;10.38;62.74
76384;SHT30;65204;48.606;7.598;2023-02-25T00:11:29;10.40;62.83
76384;SHT30;65204;48.606;7.598;2023-02-25T00:12:00;10.40;63.08
76384;SHT30;65204;48.606;7.598;2023-02-25T00:12:30;10.40;62.91
76384;SHT30;65204;48.606;7.598;2023-02-25T00:13:03;10.41;63.06
76384;SHT30;65204;48.606;7.598;2023-02-25T00:13:34;10.41;63.03
76384;SHT30;65204;48.606;7.598;2023-02-25T00:14:05;10.40;62.95
76384;SHT30;65204;48.606;7.598;2023-02-25T00:14:35;10.42;62.93
76384;SHT30;65204;48.606;7.598;2023-02-25T00:15:07;10.41;62.71
76384;SHT30;65204;48.606;7.598;2023-02-25T00:15:39;10.42;62.78
76384;SHT30;65204;48.606;7.598;2023-02-25T00:16:11;10.41;62.94
76384;SHT30;65204;48.606;7.598;2023-02-25T00:16:41;10.38;63.07
76384;SHT30;65204;48.606;7.598;2023-02-25T00:17:11;10.40;62.99
76384;SHT30;65204;48.606;7.598;2023-02-25T00:17:42;10.41;62.96
76384;SHT30;65204;48.606;7.598;2023-02-25T00:18:13;10.38;62.79
76384;SHT30;65204;48.606;7.598;2023-02-25T00:18:43;10.35;63.04
76384;SHT30;65204;48.606;7.598;2023-02-25T00:19:16;10.38;63.03
76384;SHT30;65204;48.606;7.598;2023-02-25T00:19:46;10.40;62.69
76384;SHT30;65204;48.606;7.598;2023-02-25T00:20:17;10.40;62.67
76384;SHT30;65204;48.606;7.598;2023-02-25T00:20:51;10.37;62.75
76384;SHT30;65204;48.606;7.598;2023-02-25T00:21:22;10.37;62.87
76384;SHT30;65204;48.606;7.598;2023-02-25T00:21:53;10.37;63.12
76384;SHT30;65204;48.606;7.598;2023-02-25T00:22:23;10.35;62.89
76384;SHT30;65204;48.606;7.598;2023-02-25T00:22:54;10.37;62.60
76384;SHT30;65204;48.606;7.598;2023-02-25T00:23:24;10.37;62.71
76384;SHT30;65204;48.606;7.598;2023-02-25T00:23:55;10.35;62.77
76384;SHT30;65204;48.606;7.598;2023-02-25T00:24:25;10.37;62.61
76384;SHT30;65204;48.606;7.598;2023-02-25T00:24:56;10.35;62.60
76384;SHT30;65204;48.606;7.598;2023-02-25T00:25:26;10.35;62.39
76384;SHT30;65204;48.606;7.598;2023-02-25T00:26:02;10.35;62.10
76384;SHT30;65204;48.606;7.598;2023-02-25T00:26:34;10.34;61.87
76384;SHT30;65204;48.606;7.598;2023-02-25T00:27:04;10.33;62.22
76384;SHT30;65204;48.606;7.598;2023-02-25T00:27:35;10.34;62.23
76384;SHT30;65204;48.606;7.598;2023-02-25T00:28:05;10.35;62.41
76384;SHT30;65204;48.606;7.598;2023-02-25T00:28:36;10.35;62.36
76384;SHT30;65204;48.606;7.598;2023-02-25T00:29:07;10.33;62.48
76384;SHT30;65204;48.606;7.598;2023-02-25T00:29:37;10.34;62.52
76384;SHT30;65204;48.606;7.598;2023-02-25T00:30:09;10.34;62.55
76384;SHT30;65204;48.606;7.598;2023-02-25T00:30:40;10.35;62.36
76384;SHT30;65204;48.606;7.598;2023-02-25T00:31:17;10.34;62.67
76384;SHT30;65204;48.606;7.598;2023-02-25T00:31:48;10.34;62.73
76384;SHT30;65204;48.606;7.598;2023-02-25T00:32:19;10.37;62.46
76384;SHT30;65204;48.606;7.598;2023-02-25T00:32:49;10.35;62.33
76384;SHT30;65204;48.606;7.598;2023-02-25T00:33:20;10.34;62.66
76384;SHT30;65204;48.606;7.598;2023-02-25T00:33:51;10.35;62.39
76384;SHT30;65204;48.606;7.598;2023-02-25T00:34:21;10.33;62.25
76384;SHT30;65204;48.606;7.598;2023-02-25T00:34:52;10.34;62.32
76384;SHT30;65204;48.606;7.598;2023-02-25T00:35:22;10.33;62.31
76384;SHT30;65204;48.606;7.598;2023-02-25T00:35:52;10.34;62.26
76384;SHT30;65204;48.606;7.598;2023-02-25T00:36:25;10.33;62.36
76384;SHT30;65204;48.606;7.598;2023-02-25T00:36:55;10.31;62.23
76384;SHT30;65204;48.606;7.598;2023-02-25T00:37:26;10.33;62.17
76384;SHT30;65204;48.606;7.598;2023-02-25T00:37:56;10.33;62.38
76384;SHT30;65204;48.606;7.598;2023-02-25T00:38:26;10.34;62.29
76384;SHT30;65204;48.606;7.598;2023-02-25T00:38:57;10.33;62.33
76384;SHT30;65204;48.606;7.598;2023-02-25T00:39:27;10.33;62.21
76384;SHT30;65204;48.606;7.598;2023-02-25T00:40:12;10.37;62.14
76384;SHT30;65204;48.606;7.598;2023-02-25T00:40:45;10.34;62.05
76384;SHT30;65204;48.606;7.598;2023-02-25T00:41:18;10.34;62.17
76384;SHT30;65204;48.606;7.598;2023-02-25T00:41:49;10.34;62.18
76384;SHT30;65204;48.606;7.598;2023-02-25T00:42:19;10.34;62.18
76384;SHT30;65204;48.606;7.598;2023-02-25T00:42:49;10.34;62.18
76384;SHT30;65204;48.606;7.598;2023-02-25T00:43:20;10.33;61.86
76384;SHT30;65204;48.606;7.598;2023-02-25T00:43:59;10.33;62.02
76384;SHT30;65204;48.606;7.598;2023-02-25T00:44:30;10.33;62.02
76384;SHT30;65204;48.606;7.598;2023-02-25T00:45:00;10.31;62.11
76384;SHT30;65204;48.606;7.598;2023-02-25T00:45:31;10.28;62.22
76384;SHT30;65204;48.606;7.598;2023-02-25T00:46:01;10.30;62.17
76384;SHT30;65204;48.606;7.598;2023-02-25T00:46:32;10.31;62.26
76384;SHT30;65204;48.606;7.598;2023-02-25T00:47:03;10.30;62.06
76384;SHT30;65204;48.606;7.598;2023-02-25T00:47:34;10.33;62.12
76384;SHT30;65204;48.606;7.598;2023-02-25T00:48:04;10.31;61.97
76384;SHT30;65204;48.606;7.598;2023-02-25T00:48:35;10.31;61.99
76384;SHT30;65204;48.606;7.598;2023-02-25T00:49:05;10.27;61.89
76384;SHT30;65204;48.606;7.598;2023-02-25T00:49:36;10.30;62.08
76384;SHT30;65204;48.606;7.598;2023-02-25T00:50:07;10.31;61.94
76384;SHT30;65204;48.606;7.598;2023-02-25T00:50:38;10.28;61.73
76384;SHT30;65204;48.606;7.598;2023-02-25T00:51:12;10.30;61.87
76384;SHT30;65204;48.606;7.598;2023-02-25T00:51:42;10.30;61.73
76384;SHT30;65204;48.606;7.598;2023-02-25T00:52:14;10.28;61.51
76384;SHT30;65204;48.606;7.598;2023-02-25T00:52:45;10.25;61.50
76384;SHT30;65204;48.606;7.598;2023-02-25T00:53:15;10.28;61.68
76384;SHT30;65204;48.606;7.598;2023-02-25T00:53:46;10.27;61.86
76384;SHT30;65204;48.606;7.598;2023-02-25T00:54:16;10.28;61.54
76384;SHT30;65204;48.606;7.598;2023-02-25T00:54:46;10.30;61.38
76384;SHT30;65204;48.606;7.598;2023-02-25T00:55:17;10.28;61.29
76384;SHT30;65204;48.606;7.598;2023-02-25T00:55:57;10.27;61.43
76384;SHT30;65204;48.606;7.598;2023-02-25T00:56:27;10.27;61.54
76384;SHT30;65204;48.606;7.598;2023-02-25T00:56:58;10.31;61.55
76384;SHT30;65204;48.606;7.598;2023-02-25T00:57:28;10.28;61.64
76384;SHT30;65204;48.606;7.598;2023-02-25T00:57:59;10.27;61.81
76384;SHT30;65204;48.606;7.598;2023-02-25T00:58:30;10.25;61.74
76384;SHT30;65204;48.606;7.598;2023-02-25T00:59:00;10.28;61.90
76384;SHT30;65204;48.606;7.598;2023-02-25T00:59:31;10.30;62.00
76384;SHT30;65204;48.606;7.598;2023-02-25T01:00:04;10.28;61.86
76384;SHT30;65204;48.606;7.598;2023-02-25T01:00:38;10.25;61.87
76384;SHT30;65204;48.606;7.598;2023-02-25T01:01:20;10.28;62.14
76384;SHT30;65204;48.606;7.598;2023-02-25T01:01:51;10.24;62.05
76384;SHT30;65204;48.606;7.598;2023-02-25T01:02:22;10.25;61.96
76384;SHT30;65204;48.606;7.598;2023-02-25T01:02:55;10.25;62.02
76384;SHT30;65204;48.606;7.598;2023-02-25T01:03:25;10.22;62.10
76384;SHT30;65204;48.606;7.598;2023-02-25T01:03:56;10.21;62.17
76384;SHT30;65204;48.606;7.598;2023-02-25T01:04:26;10.21;62.19
76384;SHT30;65204;48.606;7.598;2023-02-25T01:04:57;10.20;62.02
76384;SHT30;65204;48.606;7.598;2023-02-25T01:05:27;10.21;62.20
76384;SHT30;65204;48.606;7.598;2023-02-25T01:05:57;10.18;62.28
76384;SHT30;65204;48.606;7.598;2023-02-25T01:06:32;10.20;62.43
76384;SHT30;65204;48.606;7.598;2023-02-25T01:07:03;10.18;62.39
76384;SHT30;65204;48.606;7.598;2023-02-25T01:07:33;10.17;62.60
76384;SHT30;65204;48.606;7.598;2023-02-25T01:08:04;10.20;62.66
76384;SHT30;65204;48.606;7.598;2023-02-25T01:08:35;10.17;62.64
76384;SHT30;65204;48.606;7.598;2023-02-25T01:09:06;10.18;62.65
76384;SHT30;65204;48.606;7.598;2023-02-25T01:09:42;10.17;62.81
76384;SHT30;65204;48.606;7.598;2023-02-25T01:10:13;10.17;62.73
76384;SHT30;65204;48.606;7.598;2023-02-25T01:10:44;10.17;62.50
76384;SHT30;65204;48.606;7.598;2023-02-25T01:11:21;10.13;62.25
76384;SHT30;65204;48.606;7.598;2023-02-25T01:11:58;10.13;62.36
76384;SHT30;65204;48.606;7.598;2023-02-25T01:12:28;10.15;62.09
76384;SHT30;65204;48.606;7.598;2023-02-25T01:12:58;10.14;62.14
76384;SHT30;65204;48.606;7.598;2023-02-25T01:13:29;10.13;62.01
76384;SHT30;65204;48.606;7.598;2023-02-25T01:14:05;10.10;62.06
76384;SHT30;65204;48.606;7.598;2023-02-25T01:14:36;10.08;62.03
76384;SHT30;65204;48.606;7.598;2023-02-25T01:15:07;10.10;62.15
76384;SHT30;65204;48.606;7.598;2023-02-25T01:15:37;10.07;62.19
76384;SHT30;65204;48.606;7.598;2023-02-25T01:16:15;10.05;62.28
76384;SHT30;65204;48.606;7.598;2023-02-25T01:16:47;10.07;62.17
76384;SHT30;65204;48.606;7.598;2023-02-25T01:17:18;10.04;62.13
76384;SHT30;65204;48.606;7.598;2023-02-25T01:17:48;10.03;62.23
76384;SHT30;65204;48.606;7.598;2023-02-25T01:18:19;10.01;62.41
76384;SHT30;65204;48.606;7.598;2023-02-25T01:18:57;10.00;62.37
76384;SHT30;65204;48.606;7.598;2023-02-25T01:19:28;10.00;62.41
76384;SHT30;65204;48.606;7.598;2023-02-25T01:19:58;9.97;62.54
76384;SHT30;65204;48.606;7.598;2023-02-25T01:20:29;9.97;62.71
76384;SHT30;65204;48.606;7.598;2023-02-25T01:21:00;9.96;62.82
76384;SHT30;65204;48.606;7.598;2023-02-25T01:21:34;9.94;62.80
76384;SHT30;65204;48.606;7.598;2023-02-25T01:22:04;9.94;62.84
76384;SHT30;65204;48.606;7.598;2023-02-25T01:22:36;9.90;62.88
76384;SHT30;65204;48.606;7.598;2023-02-25T01:23:10;9.91;62.87
76384;SHT30;65204;48.606;7.598;2023-02-25T01:23:41;9.91;62.92
76384;SHT30;65204;48.606;7.598;2023-02-25T01:24:54;9.87;62.98
76384;SHT30;65204;48.606;7.598;2023-02-25T01:25:24;9.89;62.95
76384;SHT30;65204;48.606;7.598;2023-02-25T01:25:56;9.91;62.79
76384;SHT30;65204;48.606;7.598;2023-02-25T01:26:28;9.87;62.88
76384;SHT30;65204;48.606;7.598;2023-02-25T01:27:01;9.89;62.97
76384;SHT30;65204;48.606;7.598;2023-02-25T01:27:31;9.87;62.93
76384;SHT30;65204;48.606;7.598;2023-02-25T01:28:02;9.89;62.97
76384;SHT30;65204;48.606;7.598;2023-02-25T01:28:32;9.87;62.96
76384;SHT30;65204;48.606;7.598;2023-02-25T01:29:13;9.91;62.79
76384;SHT30;65204;48.606;7.598;2023-02-25T01:29:43;9.91;62.72
76384;SHT30;65204;48.606;7.598;2023-02-25T01:30:14;9.89;62.56
76384;SHT30;65204;48.606;7.598;2023-02-25T01:30:45;9.91;62.69
76384;SHT30;65204;48.606;7.598;2023-02-25T01:31:19;9.90;62.82
76384;SHT30;65204;48.606;7.598;2023-02-25T01:31:55;9.89;62.77
76384;SHT30;65204;48.606;7.598;2023-02-25T01:32:26;9.90;62.80
76384;SHT30;65204;48.606;7.598;2023-02-25T01:32:56;9.91;62.89
76384;SHT30;65204;48.606;7.598;2023-02-25T01:33:27;9.90;62.90
76384;SHT30;65204;48.606;7.598;2023-02-25T01:33:58;9.91;62.82
76384;SHT30;65204;48.606;7.598;2023-02-25T01:34:29;9.90;62.77
76384;SHT30;65204;48.606;7.598;2023-02-25T01:34:59;9.90;62.68
76384;SHT30;65204;48.606;7.598;2023-02-25T01:35:30;9.90;62.84
76384;SHT30;65204;48.606;7.598;2023-02-25T01:36:00;9.90;63.02
76384;SHT30;65204;48.606;7.598;2023-02-25T01:36:31;9.90;63.08
76384;SHT30;65204;48.606;7.598;2023-02-25T01:37:03;9.90;62.77
76384;SHT30;65204;48.606;7.598;2023-02-25T01:37:33;9.90;62.55
76384;SHT30;65204;48.606;7.598;2023-02-25T01:38:04;9.90;62.79
76384;SHT30;65204;48.606;7.598;2023-02-25T01:38:34;9.90;62.74
76384;SHT30;65204;48.606;7.598;2023-02-25T01:39:05;9.93;62.88
76384;SHT30;65204;48.606;7.598;2023-02-25T01:39:36;9.93;62.64
76384;SHT30;65204;48.606;7.598;2023-02-25T01:40:06;9.93;62.51
76384;SHT30;65204;48.606;7.598;2023-02-25T01:40:37;9.93;62.60
76384;SHT30;65204;48.606;7.598;2023-02-25T01:41:08;9.91;62.57
76384;SHT30;65204;48.606;7.598;2023-02-25T01:41:38;9.93;62.75
76384;SHT30;65204;48.606;7.598;2023-02-25T01:42:14;9.96;62.84
76384;SHT30;65204;48.606;7.598;2023-02-25T01:42:45;9.98;62.87
76384;SHT30;65204;48.606;7.598;2023-02-25T01:43:16;9.98;62.66
76384;SHT30;65204;48.606;7.598;2023-02-25T01:44:11;9.98;62.63
76384;SHT30;65204;48.606;7.598;2023-02-25T01:45:49;10.00;62.55
76384;SHT30;65204;48.606;7.598;2023-02-25T01:46:19;9.97;62.73
76384;SHT30;65204;48.606;7.598;2023-02-25T01:46:52;9.97;62.80
76384;SHT30;65204;48.606;7.598;2023-02-25T01:47:23;10.00;62.60
76384;SHT30;65204;48.606;7.598;2023-02-25T01:48:01;9.96;62.59
76384;SHT30;65204;48.606;7.598;2023-02-25T01:48:35;9.97;62.57
76384;SHT30;65204;48.606;7.598;2023-02-25T01:49:49;9.96;62.57
76384;SHT30;65204;48.606;7.598;2023-02-25T01:50:24;9.96;62.42
76384;SHT30;65204;48.606;7.598;2023-02-25T01:51:00;9.96;62.71
76384;SHT30;65204;48.606;7.598;2023-02-25T01:51:32;9.94;62.47
76384;SHT30;65204;48.606;7.598;2023-02-25T01:52:07;9.98;62.44
76384;SHT30;65204;48.606;7.598;2023-02-25T01:52:39;9.98;62.42
76384;SHT30;65204;48.606;7.598;2023-02-25T01:53:11;9.96;62.31
76384;SHT30;65204;48.606;7.598;2023-02-25T01:53:45;9.97;62.27
76384;SHT30;65204;48.606;7.598;2023-02-25T01:54:17;9.98;62.17
76384;SHT30;65204;48.606;7.598;2023-02-25T01:54:53;9.97;62.21
76384;SHT30;65204;48.606;7.598;2023-02-25T01:55:25;9.97;62.35
76384;SHT30;65204;48.606;7.598;2023-02-25T01:55:56;9.97;62.11
76384;SHT30;65204;48.606;7.598;2023-02-25T01:56:29;10.00;62.26
76384;SHT30;65204;48.606;7.598;2023-02-25T01:57:03;9.98;61.92
76384;SHT30;65204;48.606;7.598;2023-02-25T01:57:35;9.97;62.05
76384;SHT30;65204;48.606;7.598;2023-02-25T01:58:07;10.01;62.22
76384;SHT30;65204;48.606;7.598;2023-02-25T01:58:38;10.00;61.95
76384;SHT30;65204;48.606;7.598;2023-02-25T01:59:11;10.01;62.01
76384;SHT30;65204;48.606;7.598;2023-02-25T01:59:42;9.97;62.10
76384;SHT30;65204;48.606;7.598;2023-02-25T02:00:13;10.00;62.21
76384;SHT30;65204;48.606;7.598;2023-02-25T02:00:46;9.96;62.36
76384;SHT30;65204;48.606;7.598;2023-02-25T02:01:19;9.98;62.40
76384;SHT30;65204;48.606;7.598;2023-02-25T02:01:50;9.98;62.44
76384;SHT30;65204;48.606;7.598;2023-02-25T02:02:22;9.94;62.27
76384;SHT30;65204;48.606;7.598;2023-02-25T02:02:54;9.96;62.40
76384;SHT30;65204;48.606;7.598;2023-02-25T02:03:29;9.98;62.43
76384;SHT30;65204;48.606;7.598;2023-02-25T02:04:03;9.98;62.28
76384;SHT30;65204;48.606;7.598;2023-02-25T02:04:35;9.93;62.03
76384;SHT30;65204;48.606;7.598;2023-02-25T02:05:06;9.96;62.22
76384;SHT30;65204;48.606;7.598;2023-02-25T02:06:10;9.96;62.10
76384;SHT30;65204;48.606;7.598;2023-02-25T02:06:43;9.94;62.24
76384;SHT30;65204;48.606;7.598;2023-02-25T02:07:15;9.97;62.33
76384;SHT30;65204;48.606;7.598;2023-02-25T02:07:46;9.97;62.37
76384;SHT30;65204;48.606;7.598;2023-02-25T02:08:17;9.97;62.29
76384;SHT30;65204;48.606;7.598;2023-02-25T02:08:48;9.97;62.17
76384;SHT30;65204;48.606;7.598;2023-02-25T02:09:24;9.97;62.26
76384;SHT30;65204;48.606;7.598;2023-02-25T02:09:55;9.96;62.19
76384;SHT30;65204;48.606;7.598;2023-02-25T02:10:25;10.00;62.07
76384;SHT30;65204;48.606;7.598;2023-02-25T02:10:55;9.98;61.94
76384;SHT30;65204;48.606;7.598;2023-02-25T02:11:28;9.96;61.85
76384;SHT30;65204;48.606;7.598;2023-02-25T02:12:00;9.96;61.88
76384;SHT30;65204;48.606;7.598;2023-02-25T02:12:34;9.94;61.88
76384;SHT30;65204;48.606;7.598;2023-02-25T02:13:06;9.94;62.11
76384;SHT30;65204;48.606;7.598;2023-02-25T02:13:41;9.94;62.06
76384;SHT30;65204;48.606;7.598;2023-02-25T02:14:16;9.93;62.14
76384;SHT30;65204;48.606;7.598;2023-02-25T02:14:47;9.91;62.07
76384;SHT30;65204;48.606;7.598;2023-02-25T02:15:18;9.94;62.27
76384;SHT30;65204;48.606;7.598;2023-02-25T02:18:28;9.91;62.06
76384;SHT30;65204;48.606;7.598;2023-02-25T02:20:03;9.90;62.05
76384;SHT30;65204;48.606;7.598;2023-02-25T02:21:44;9.87;61.91
76384;SHT30;65204;48.606;7.598;2023-02-25T02:24:01;9.86;61.47
76384;SHT30;65204;48.606;7.598;2023-02-25T02:24:50;9.89;61.67
76384;SHT30;65204;48.606;7.598;2023-02-25T02:25:52;9.84;61.57
76384;SHT30;65204;48.606;7.598;2023-02-25T02:28:02;9.87;61.28
76384;SHT30;65204;48.606;7.598;2023-02-25T02:30:34;9.82;61.32
76384;SHT30;65204;48.606;7.598;2023-02-25T02:31:33;9.82;61.48
76384;SHT30;65204;48.606;7.598;2023-02-25T02:33:01;9.76;61.51
76384;SHT30;65204;48.606;7.598;2023-02-25T02:34:19;9.76;61.44
76384;SHT30;65204;48.606;7.598;2023-02-25T02:35:33;9.73;61.30
76384;SHT30;65204;48.606;7.598;2023-02-25T02:37:23;9.76;61.31
76384;SHT30;65204;48.606;7.598;2023-02-25T02:38:16;9.73;61.22
76384;SHT30;65204;48.606;7.598;2023-02-25T02:39:03;9.70;61.38
76384;SHT30;65204;48.606;7.598;2023-02-25T02:39:45;9.67;61.46
76384;SHT30;65204;48.606;7.598;2023-02-25T02:41:21;9.64;61.84
76384;SHT30;65204;48.606;7.598;2023-02-25T02:43:36;9.66;62.17
76384;SHT30;65204;48.606;7.598;2023-02-25T02:44:23;9.64;62.09
76384;SHT30;65204;48.606;7.598;2023-02-25T02:45:03;9.64;62.07
76384;SHT30;65204;48.606;7.598;2023-02-25T02:46:02;9.63;62.12
76384;SHT30;65204;48.606;7.598;2023-02-25T02:46:42;9.66;61.85
76384;SHT30;65204;48.606;7.598;2023-02-25T02:47:36;9.64;61.84
76384;SHT30;65204;48.606;7.598;2023-02-25T02:48:14;9.66;61.69
76384;SHT30;65204;48.606;7.598;2023-02-25T02:49:10;9.62;61.93
76384;SHT30;65204;48.606;7.598;2023-02-25T02:49:49;9.63;62.04
76384;SHT30;65204;48.606;7.598;2023-02-25T02:50:30;9.62;62.10
76384;SHT30;65204;48.606;7.598;2023-02-25T02:51:09;9.66;62.19
76384;SHT30;65204;48.606;7.598;2023-02-25T02:51:51;9.64;62.66
76384;SHT30;65204;48.606;7.598;2023-02-25T02:52:26;9.64;62.38
76384;SHT30;65204;48.606;7.598;2023-02-25T02:53:03;9.63;62.13
76384;SHT30;65204;48.606;7.598;2023-02-25T02:53:51;9.63;62.48
76384;SHT30;65204;48.606;7.598;2023-02-25T02:54:25;9.64;62.63
76384;SHT30;65204;48.606;7.598;2023-02-25T02:55:12;9.64;62.55
76384;SHT30;65204;48.606;7.598;2023-02-25T02:55:53;9.62;62.53
76384;SHT30;65204;48.606;7.598;2023-02-25T02:56:25;9.62;62.61
76384;SHT30;65204;48.606;7.598;2023-02-25T02:56:58;9.64;62.61
76384;SHT30;65204;48.606;7.598;2023-02-25T02:57:31;9.66;62.61
76384;SHT30;65204;48.606;7.598;2023-02-25T02:58:10;9.63;62.69
76384;SHT30;65204;48.606;7.598;2023-02-25T02:58:46;9.67;62.63
76384;SHT30;65204;48.606;7.598;2023-02-25T02:59:24;9.67;62.75
76384;SHT30;65204;48.606;7.598;2023-02-25T03:00:03;9.67;62.65
76384;SHT30;65204;48.606;7.598;2023-02-25T03:00:45;9.66;62.54
76384;SHT30;65204;48.606;7.598;2023-02-25T03:01:26;9.66;62.60
76384;SHT30;65204;48.606;7.598;2023-02-25T03:02:04;9.69;62.70
76384;SHT30;65204;48.606;7.598;2023-02-25T03:02:39;9.67;62.78
76384;SHT30;65204;48.606;7.598;2023-02-25T03:03:14;9.67;62.74
76384;SHT30;65204;48.606;7.598;2023-02-25T03:03:57;9.67;62.73
76384;SHT30;65204;48.606;7.598;2023-02-25T03:04:33;9.67;62.72
76384;SHT30;65204;48.606;7.598;2023-02-25T03:05:08;9.64;62.72
76384;SHT30;65204;48.606;7.598;2023-02-25T03:05:41;9.64;62.83
76384;SHT30;65204;48.606;7.598;2023-02-25T03:06:20;9.66;62.94
76384;SHT30;65204;48.606;7.598;2023-02-25T03:06:56;9.67;62.84
76384;SHT30;65204;48.606;7.598;2023-02-25T03:07:31;9.67;62.98
76384;SHT30;65204;48.606;7.598;2023-02-25T03:08:54;9.64;62.78
76384;SHT30;65204;48.606;7.598;2023-02-25T03:09:48;9.64;62.73
76384;SHT30;65204;48.606;7.598;2023-02-25T03:10:20;9.63;62.80
76384;SHT30;65204;48.606;7.598;2023-02-25T03:10:51;9.64;62.97
76384;SHT30;65204;48.606;7.598;2023-02-25T03:11:22;9.64;62.94
76384;SHT30;65204;48.606;7.598;2023-02-25T03:11:52;9.60;62.84
76384;SHT30;65204;48.606;7.598;2023-02-25T03:12:23;9.64;62.74
76384;SHT30;65204;48.606;7.598;2023-02-25T03:12:54;9.62;62.84
76384;SHT30;65204;48.606;7.598;2023-02-25T03:13:24;9.63;63.05
76384;SHT30;65204;48.606;7.598;2023-02-25T03:13:54;9.62;63.05
76384;SHT30;65204;48.606;7.598;2023-02-25T03:14:25;9.60;63.01
76384;SHT30;65204;48.606;7.598;2023-02-25T03:14:55;9.60;63.07
76384;SHT30;65204;48.606;7.598;2023-02-25T03:15:27;9.59;63.12
76384;SHT30;65204;48.606;7.598;2023-02-25T03:16:00;9.62;63.16
76384;SHT30;65204;48.606;7.598;2023-02-25T03:16:37;9.64;63.13
76384;SHT30;65204;48.606;7.598;2023-02-25T03:17:11;9.62;62.97
76384;SHT30;65204;48.606;7.598;2023-02-25T03:17:50;9.64;62.94
76384;SHT30;65204;48.606;7.598;2023-02-25T03:18:33;9.64;63.02
76384;SHT30;65204;48.606;7.598;2023-02-25T03:19:11;9.64;62.93
76384;SHT30;65204;48.606;7.598;2023-02-25T03:19:59;9.66;62.77
76384;SHT30;65204;48.606;7.598;2023-02-25T03:20:36;9.63;62.91
76384;SHT30;65204;48.606;7.598;2023-02-25T03:21:17;9.59;63.20
76384;SHT30;65204;48.606;7.598;2023-02-25T03:21:55;9.62;63.08
76384;SHT30;65204;48.606;7.598;2023-02-25T03:22:32;9.59;63.06
76384;SHT30;65204;48.606;7.598;2023-02-25T03:23:08;9.59;63.08
76384;SHT30;65204;48.606;7.598;2023-02-25T03:23:41;9.59;63.15
76384;SHT30;65204;48.606;7.598;2023-02-25T03:24:18;9.60;63.12
76384;SHT30;65204;48.606;7.598;2023-02-25T03:25:04;9.57;63.07
76384;SHT30;65204;48.606;7.598;2023-02-25T03:25:42;9.59;63.07
76384;SHT30;65204;48.606;7.598;2023-02-25T03:26:27;9.59;63.00
76384;SHT30;65204;48.606;7.598;2023-02-25T03:26:58;9.57;63.15
76384;SHT30;65204;48.606;7.598;2023-02-25T03:27:32;9.56;63.19
76384;SHT30;65204;48.606;7.598;2023-02-25T03:28:25;9.54;63.04
76384;SHT30;65204;48.606;7.598;2023-02-25T03:28:55;9.53;63.01
76384;SHT30;65204;48.606;7.598;2023-02-25T03:29:26;9.52;63.05
76384;SHT30;65204;48.606;7.598;2023-02-25T03:30:53;9.52;62.79
76384;SHT30;65204;48.606;7.598;2023-02-25T03:31:33;9.52;62.82
76384;SHT30;65204;48.606;7.598;2023-02-25T03:32:09;9.53;62.71
76384;SHT30;65204;48.606;7.598;2023-02-25T03:32:45;9.54;62.60
76384;SHT30;65204;48.606;7.598;2023-02-25T03:33:27;9.53;62.61
76384;SHT30;65204;48.606;7.598;2023-02-25T03:34:05;9.50;62.55
76384;SHT30;65204;48.606;7.598;2023-02-25T03:34:39;9.50;62.52
76384;SHT30;65204;48.606;7.598;2023-02-25T03:35:12;9.53;62.47
76384;SHT30;65204;48.606;7.598;2023-02-25T03:35:44;9.50;62.54
76384;SHT30;65204;48.606;7.598;2023-02-25T03:36:30;9.52;62.11
76384;SHT30;65204;48.606;7.598;2023-02-25T03:37:10;9.54;61.93
76384;SHT30;65204;48.606;7.598;2023-02-25T03:37:47;9.57;62.10
76384;SHT30;65204;48.606;7.598;2023-02-25T03:38:19;9.56;61.35
76384;SHT30;65204;48.606;7.598;2023-02-25T03:38:55;9.56;61.48
76384;SHT30;65204;48.606;7.598;2023-02-25T03:39:30;9.56;61.49
76384;SHT30;65204;48.606;7.598;2023-02-25T03:40:04;9.57;61.75
76384;SHT30;65204;48.606;7.598;2023-02-25T03:40:41;9.54;61.66
76384;SHT30;65204;48.606;7.598;2023-02-25T03:41:14;9.56;62.00
76384;SHT30;65204;48.606;7.598;2023-02-25T03:41:50;9.56;62.12
76384;SHT30;65204;48.606;7.598;2023-02-25T03:42:28;9.53;62.20
76384;SHT30;65204;48.606;7.598;2023-02-25T03:43:14;9.52;62.21
76384;SHT30;65204;48.606;7.598;2023-02-25T03:43:49;9.54;62.20
76384;SHT30;65204;48.606;7.598;2023-02-25T03:44:29;9.56;62.18
76384;SHT30;65204;48.606;7.598;2023-02-25T03:45:02;9.54;62.06
76384;SHT30;65204;48.606;7.598;2023-02-25T03:45:36;9.53;61.96
76384;SHT30;65204;48.606;7.598;2023-02-25T03:46:08;9.54;61.95
76384;SHT30;65204;48.606;7.598;2023-02-25T03:46:42;9.56;62.05
76384;SHT30;65204;48.606;7.598;2023-02-25T03:47:13;9.50;62.39
76384;SHT30;65204;48.606;7.598;2023-02-25T03:47:44;9.52;62.38
76384;SHT30;65204;48.606;7.598;2023-02-25T03:48:15;9.53;62.18
76384;SHT30;65204;48.606;7.598;2023-02-25T03:48:47;9.53;62.32
76384;SHT30;65204;48.606;7.598;2023-02-25T03:49:24;9.53;62.33
76384;SHT30;65204;48.606;7.598;2023-02-25T03:50:01;9.52;62.26
76384;SHT30;65204;48.606;7.598;2023-02-25T03:50:45;9.52;62.34
76384;SHT30;65204;48.606;7.598;2023-02-25T03:51:22;9.52;62.47
76384;SHT30;65204;48.606;7.598;2023-02-25T03:51:56;9.50;62.28
76384;SHT30;65204;48.606;7.598;2023-02-25T03:52:29;9.52;62.33
76384;SHT30;65204;48.606;7.598;2023-02-25T03:52:59;9.50;62.32
76384;SHT30;65204;48.606;7.598;2023-02-25T03:53:30;9.52;62.39
76384;SHT30;65204;48.606;7.598;2023-02-25T03:54:01;9.49;62.43
76384;SHT30;65204;48.606;7.598;2023-02-25T03:54:31;9.50;62.55
76384;SHT30;65204;48.606;7.598;2023-02-25T03:55:02;9.50;62.45
76384;SHT30;65204;48.606;7.598;2023-02-25T03:55:33;9.52;62.24
76384;SHT30;65204;48.606;7.598;2023-02-25T03:56:07;9.50;62.21
76384;SHT30;65204;48.606;7.598;2023-02-25T03:56:46;9.49;62.41